Time;durP1;ratioP1;P1;durP2;ratioP2;P2;SDS_P1;SDS_P2;PMS_P1;PMS_P2;Temp;Humidity;BMP_temperature;BMP_pressure;BME280_temperature;BME280_humidity;BME280_pressure;Samples;Min_cycle;Max_cycle;Signal;HPM_P1;HPM_P2
2022/04/08 00:01:44;;;;;;;5.57;1.90;;;7.70;99.90;;;;;;5093458;28;20234;-69
2022/04/08 00:04:10;;;;;;;4.90;2.07;;;7.70;99.90;;;;;;5073834;28;20217;-70
2022/04/08 00:06:36;;;;;;;2.13;1.70;;;7.80;99.90;;;;;;5074946;28;20196;-70
2022/04/08 00:09:02;;;;;;;1.80;1.50;;;7.90;99.90;;;;;;5081723;28;20189;-69
2022/04/08 00:11:28;;;;;;;3.03;2.20;;;8.00;99.90;;;;;;5049463;28;20638;-69
2022/04/08 00:13:57;;;;;;;10.03;3.20;;;7.90;99.90;;;;;;5062317;28;20200;-69
2022/04/08 00:16:22;;;;;;;2.20;2.00;;;8.00;99.90;;;;;;5085940;28;20188;-69
2022/04/08 00:18:49;;;;;;;4.83;2.33;;;8.00;99.90;;;;;;5074572;28;20659;-69
2022/04/08 00:21:15;;;;;;;5.77;1.90;;;8.00;99.90;;;;;;5092485;28;20184;-69
2022/04/08 00:23:40;;;;;;;1.73;1.63;;;7.80;99.90;;;;;;5092257;28;20239;-69
2022/04/08 00:26:06;;;;;;;4.17;2.23;;;7.60;99.90;;;;;;5057648;28;20196;-69
2022/04/08 00:28:32;;;;;;;7.83;2.30;;;7.80;99.90;;;;;;5057191;28;20177;-69
2022/04/08 00:30:57;;;;;;;6.17;1.93;;;7.70;99.90;;;;;;5092304;28;20255;-69
2022/04/08 00:33:23;;;;;;;3.13;2.40;;;7.60;99.90;;;;;;5074398;28;20287;-68
2022/04/08 00:35:49;;;;;;;7.27;1.60;;;7.70;99.90;;;;;;5057926;28;20512;-69
2022/04/08 00:38:14;;;;;;;10.03;2.30;;;7.60;99.90;;;;;;5058011;28;20210;-69
2022/04/08 00:40:40;;;;;;;2.43;2.00;;;7.80;99.90;;;;;;5042430;28;20182;-69
2022/04/08 00:43:13;;;;;;;4.47;2.00;;;7.80;99.90;;;;;;5085051;28;20220;-69
2022/04/08 00:45:39;;;;;;;2.47;1.60;;;7.70;99.90;;;;;;5074615;28;20207;-69
2022/04/08 00:48:07;;;;;;;2.97;2.00;;;7.60;99.90;;;;;;5091539;28;20634;-69
2022/04/08 00:50:37;;;;;;;4.30;2.20;;;7.60;99.90;;;;;;5058350;28;20183;-69
2022/04/08 00:53:04;;;;;;;9.63;2.00;;;7.60;99.90;;;;;;5066953;28;20188;-69
2022/04/08 00:55:30;;;;;;;3.97;2.00;;;7.80;99.90;;;;;;5073341;28;20271;-69
2022/04/08 00:57:56;;;;;;;4.17;2.13;;;7.80;99.90;;;;;;5076991;28;20689;-69
2022/04/08 01:00:22;;;;;;;5.30;2.77;;;7.90;99.90;;;;;;5092045;28;20185;-70
2022/04/08 01:02:48;;;;;;;6.30;2.93;;;8.00;99.90;;;;;;5073664;28;20266;-69
2022/04/08 01:05:14;;;;;;;5.33;2.37;;;8.00;99.90;;;;;;5074219;28;20211;-69
2022/04/08 01:07:40;;;;;;;6.00;2.27;;;7.90;99.90;;;;;;5073942;28;20193;-69
2022/04/08 01:10:06;;;;;;;3.33;2.20;;;7.70;99.90;;;;;;5074197;28;20189;-69
2022/04/08 01:12:31;;;;;;;3.67;2.13;;;7.60;99.90;;;;;;5073575;28;20212;-70
2022/04/08 01:14:58;;;;;;;7.40;2.43;;;7.60;99.90;;;;;;5092297;28;20629;-69
2022/04/08 01:17:25;;;;;;;3.07;2.50;;;7.50;99.90;;;;;;5074208;28;20590;-69
2022/04/08 01:19:50;;;;;;;2.37;1.63;;;7.60;99.90;;;;;;5074425;28;20518;-69
2022/04/08 01:22:18;;;;;;;3.63;2.40;;;7.70;99.90;;;;;;5080801;28;20191;-69
2022/04/08 01:24:48;;;;;;;7.53;2.73;;;7.40;99.90;;;;;;5082901;28;20209;-69
2022/04/08 01:27:18;;;;;;;2.77;2.40;;;7.60;99.90;;;;;;5090799;28;20176;-69
2022/04/08 01:29:44;;;;;;;3.53;2.23;;;7.60;99.90;;;;;;5091876;28;20284;-68
2022/04/08 01:32:10;;;;;;;7.07;2.00;;;7.50;99.90;;;;;;5091688;28;20242;-69
2022/04/08 01:34:36;;;;;;;3.57;2.53;;;7.40;99.90;;;;;;5073788;28;20197;-70
2022/04/08 01:37:02;;;;;;;5.10;2.03;;;7.40;99.90;;;;;;5077021;28;20626;-69
2022/04/08 01:39:28;;;;;;;4.90;2.50;;;7.50;99.90;;;;;;5070933;28;20239;-69
2022/04/08 01:41:53;;;;;;;3.87;2.60;;;7.60;99.90;;;;;;5061168;28;20189;-69
2022/04/08 01:44:19;;;;;;;5.10;3.03;;;7.80;99.90;;;;;;5077855;28;20219;-69
2022/04/08 01:46:44;;;;;;;4.33;2.30;;;7.90;99.90;;;;;;5077143;28;20262;-69
2022/04/08 01:49:10;;;;;;;3.43;2.07;;;7.80;99.90;;;;;;5076453;28;20185;-69
2022/04/08 01:51:36;;;;;;;6.67;2.30;;;8.00;99.90;;;;;;5095092;28;20197;-69
2022/04/08 01:54:01;;;;;;;3.43;2.30;;;8.00;99.90;;;;;;5077474;28;20199;-69
2022/04/08 01:56:27;;;;;;;8.47;2.90;;;8.00;99.90;;;;;;5090503;28;20196;-69
2022/04/08 01:58:53;;;;;;;2.10;1.83;;;8.00;99.90;;;;;;5066542;28;20297;-69
2022/04/08 02:01:18;;;;;;;5.53;3.33;;;7.90;99.90;;;;;;5093997;28;20192;-68
2022/04/08 02:03:44;;;;;;;3.10;2.20;;;7.90;99.90;;;;;;5076555;28;20217;-69
2022/04/08 02:06:10;;;;;;;4.93;2.50;;;7.80;99.90;;;;;;5077193;28;20191;-69
2022/04/08 02:08:35;;;;;;;6.27;2.97;;;7.80;99.90;;;;;;5077400;28;20196;-69
2022/04/08 02:11:01;;;;;;;4.17;2.90;;;7.70;99.90;;;;;;5060712;28;20246;-69
2022/04/08 02:13:27;;;;;;;5.37;2.53;;;7.60;99.90;;;;;;5057946;28;20278;-70
2022/04/08 02:15:52;;;;;;;3.43;2.73;;;7.70;99.90;;;;;;5094593;28;20272;-69
2022/04/08 02:18:18;;;;;;;6.13;4.17;;;7.70;99.90;;;;;;5077152;28;20267;-69
2022/04/08 02:20:44;;;;;;;5.40;2.90;;;7.60;99.90;;;;;;5094998;28;20242;-69
2022/04/08 02:23:09;;;;;;;5.07;3.20;;;7.60;99.90;;;;;;5094788;28;20303;-69
2022/04/08 02:25:35;;;;;;;4.50;2.53;;;7.40;99.90;;;;;;5095178;28;20271;-69
2022/04/08 02:28:02;;;;;;;6.53;3.10;;;7.50;99.90;;;;;;5095179;28;20208;-69
2022/04/08 02:30:28;;;;;;;7.30;3.70;;;7.60;99.90;;;;;;5060629;28;20185;-69
2022/04/08 02:32:54;;;;;;;3.83;3.03;;;7.40;99.90;;;;;;5094730;28;20245;-69
2022/04/08 02:35:20;;;;;;;6.97;3.10;;;7.40;99.90;;;;;;5042164;28;20224;-69
2022/04/08 02:37:46;;;;;;;6.13;2.47;;;7.20;99.90;;;;;;5076046;28;20193;-69
2022/04/08 02:40:12;;;;;;;4.67;3.57;;;7.10;99.90;;;;;;5059333;28;20192;-69
2022/04/08 02:42:38;;;;;;;4.20;2.97;;;7.10;99.90;;;;;;5093837;28;20185;-69
2022/04/08 02:45:04;;;;;;;5.67;3.30;;;7.00;99.90;;;;;;5077345;28;20173;-69
2022/04/08 02:47:29;;;;;;;6.63;2.87;;;7.00;99.90;;;;;;5092870;28;20194;-69
2022/04/08 02:49:55;;;;;;;2.60;2.40;;;7.00;99.90;;;;;;5059535;28;20185;-69
2022/04/08 02:52:21;;;;;;;4.50;3.00;;;7.00;99.90;;;;;;5076976;28;20234;-68
2022/04/08 02:54:47;;;;;;;4.70;3.47;;;7.00;99.90;;;;;;5085980;28;20562;-69
2022/04/08 02:57:12;;;;;;;7.00;3.97;;;7.10;99.90;;;;;;5089478;28;20189;-69
2022/04/08 02:59:38;;;;;;;6.27;3.03;;;7.20;99.90;;;;;;5058362;28;20208;-69
2022/04/08 03:02:04;;;;;;;8.40;3.77;;;7.10;99.90;;;;;;5070637;28;20192;-69
2022/04/08 03:04:30;;;;;;;5.53;3.30;;;7.00;99.90;;;;;;5076050;28;20585;-69
2022/04/08 03:06:58;;;;;;;7.63;3.33;;;6.90;99.90;;;;;;5041802;28;20192;-69
2022/04/08 03:09:24;;;;;;;5.07;3.37;;;6.80;99.90;;;;;;5076971;28;20187;-69
2022/04/08 03:11:49;;;;;;;4.97;3.87;;;6.90;99.90;;;;;;5075786;28;20189;-69
2022/04/08 03:14:15;;;;;;;5.70;3.90;;;6.90;99.90;;;;;;5076062;28;20189;-69
2022/04/08 03:16:41;;;;;;;5.63;3.40;;;7.10;99.90;;;;;;5092970;28;20215;-69
2022/04/08 03:19:06;;;;;;;8.37;4.07;;;7.00;99.90;;;;;;5075771;28;20243;-69
2022/04/08 03:21:32;;;;;;;6.67;3.83;;;7.00;99.90;;;;;;5075688;28;20257;-69
2022/04/08 03:23:58;;;;;;;3.70;3.40;;;6.90;99.90;;;;;;5071287;28;20296;-69
2022/04/08 03:26:25;;;;;;;3.93;3.50;;;6.90;99.90;;;;;;5062008;28;20239;-69
2022/04/08 03:28:50;;;;;;;13.30;4.60;;;6.90;99.90;;;;;;5059174;28;20185;-69
2022/04/08 03:31:16;;;;;;;6.17;3.13;;;6.90;99.90;;;;;;5075834;28;20199;-69
2022/04/08 03:33:42;;;;;;;9.47;4.03;;;6.80;99.90;;;;;;5058834;28;20787;-69
2022/04/08 03:36:08;;;;;;;9.17;4.53;;;6.70;99.90;;;;;;5063027;28;20705;-69
2022/04/08 03:38:34;;;;;;;5.50;3.63;;;6.80;99.90;;;;;;5073355;28;20245;-69
2022/04/08 03:41:00;;;;;;;6.40;3.83;;;6.90;99.90;;;;;;5093133;28;20617;-69
2022/04/08 03:43:28;;;;;;;5.77;4.00;;;6.90;99.90;;;;;;5092635;28;20212;-69
2022/04/08 03:45:53;;;;;;;5.20;3.67;;;6.90;99.90;;;;;;5059035;28;20192;-69
2022/04/08 03:48:19;;;;;;;7.27;3.70;;;7.00;99.90;;;;;;5074947;28;20195;-69
2022/04/08 03:50:45;;;;;;;9.10;4.40;;;7.00;99.90;;;;;;5075571;28;20180;-69
2022/04/08 03:53:12;;;;;;;11.07;4.20;;;6.90;99.90;;;;;;5074161;28;20606;-70
2022/04/08 03:55:39;;;;;;;8.37;3.80;;;6.90;99.90;;;;;;5042291;28;20199;-70
2022/04/08 03:58:05;;;;;;;5.13;3.53;;;6.90;99.90;;;;;;5056433;28;20952;-70
2022/04/08 04:00:30;;;;;;;5.43;4.37;;;6.80;99.90;;;;;;5045315;28;20281;-70
2022/04/08 04:02:56;;;;;;;12.27;4.77;;;6.80;99.90;;;;;;5065762;28;20577;-70
2022/04/08 04:05:22;;;;;;;9.23;3.90;;;6.70;99.90;;;;;;5093206;28;20185;-70
2022/04/08 04:07:47;;;;;;;5.70;3.57;;;6.70;99.90;;;;;;5073825;28;20181;-71
2022/04/08 04:10:14;;;;;;;7.90;3.57;;;6.70;99.90;;;;;;5058176;28;20189;-70
2022/04/08 04:12:41;;;;;;;9.20;4.83;;;6.70;99.90;;;;;;5079430;28;20196;-69
2022/04/08 04:15:08;;;;;;;6.27;3.60;;;6.70;99.90;;;;;;5069016;28;20189;-70
2022/04/08 04:17:35;;;;;;;5.90;3.97;;;6.70;99.90;;;;;;5058699;28;20188;-69
2022/04/08 04:20:00;;;;;;;6.97;3.40;;;6.80;99.90;;;;;;5091912;28;20188;-69
2022/04/08 04:22:26;;;;;;;5.23;3.43;;;6.70;99.90;;;;;;5092123;28;20185;-68
2022/04/08 04:24:52;;;;;;;5.50;3.80;;;6.60;99.90;;;;;;5092876;28;20208;-69
2022/04/08 04:27:18;;;;;;;9.13;4.37;;;6.70;99.90;;;;;;5041458;28;20193;-68
2022/04/08 04:29:43;;;;;;;5.57;4.50;;;6.60;99.90;;;;;;5058124;28;20181;-69
2022/04/08 04:32:09;;;;;;;7.03;3.57;;;6.50;99.90;;;;;;5074382;28;20184;-69
2022/04/08 04:34:36;;;;;;;9.57;4.20;;;6.50;99.90;;;;;;5092536;28;20201;-69
2022/04/08 04:37:04;;;;;;;5.67;3.60;;;6.70;99.90;;;;;;5058704;28;20184;-69
2022/04/08 04:39:30;;;;;;;6.90;4.23;;;6.70;99.90;;;;;;5075354;28;20180;-69
2022/04/08 04:41:55;;;;;;;6.57;3.53;;;6.70;99.90;;;;;;5091388;28;20191;-69
2022/04/08 04:44:21;;;;;;;9.77;3.90;;;6.70;99.90;;;;;;5073539;28;20289;-70
2022/04/08 04:46:47;;;;;;;4.67;4.27;;;6.60;99.90;;;;;;5054939;28;20618;-69
2022/04/08 04:49:13;;;;;;;5.53;3.80;;;6.50;99.90;;;;;;5056130;28;20189;-71
2022/04/08 04:51:39;;;;;;;7.80;3.60;;;6.40;99.90;;;;;;5058186;28;20525;-69
2022/04/08 04:54:04;;;;;;;3.47;2.93;;;6.50;99.90;;;;;;5054625;28;20196;-69
2022/04/08 04:56:30;;;;;;;6.87;4.57;;;6.50;99.90;;;;;;5057289;28;20189;-69
2022/04/08 04:58:56;;;;;;;4.47;3.27;;;6.50;99.90;;;;;;5092124;28;20207;-69
2022/04/08 05:01:21;;;;;;;10.83;6.33;;;6.50;99.90;;;;;;5074253;28;20189;-69
2022/04/08 05:03:47;;;;;;;9.00;3.40;;;6.40;99.90;;;;;;5092159;28;20216;-69
2022/04/08 05:06:13;;;;;;;7.43;4.13;;;6.50;99.90;;;;;;5091566;28;20189;-70
2022/04/08 05:08:38;;;;;;;4.07;3.67;;;6.60;99.90;;;;;;5076369;28;20226;-69
2022/04/08 05:11:04;;;;;;;5.80;2.87;;;6.70;99.90;;;;;;5094130;28;20625;-69
2022/04/08 05:13:29;;;;;;;7.77;3.37;;;6.60;99.90;;;;;;5045248;28;20199;-69
2022/04/08 05:15:55;;;;;;;7.63;3.63;;;6.60;99.90;;;;;;5078487;28;20216;-71
2022/04/08 05:18:21;;;;;;;3.57;3.20;;;6.50;99.90;;;;;;5077382;28;20736;-69
2022/04/08 05:20:49;;;;;;;6.20;3.00;;;6.50;99.90;;;;;;5078373;28;20274;-69
2022/04/08 05:23:15;;;;;;;7.60;3.80;;;6.50;99.90;;;;;;5095624;28;20216;-69
2022/04/08 05:25:40;;;;;;;6.87;3.10;;;6.50;99.90;;;;;;5077182;28;20192;-69
2022/04/08 05:28:06;;;;;;;3.33;3.07;;;6.60;99.90;;;;;;5096914;28;20698;-69
2022/04/08 05:30:32;;;;;;;7.17;3.20;;;6.60;99.90;;;;;;5059158;28;20204;-69
2022/04/08 05:32:57;;;;;;;6.73;3.33;;;6.60;99.90;;;;;;5065165;28;20220;-69
2022/04/08 05:35:23;;;;;;;10.23;3.63;;;6.60;99.90;;;;;;5039456;28;20246;-69
2022/04/08 05:37:49;;;;;;;4.37;3.33;;;6.60;99.90;;;;;;5091938;28;20188;-70
2022/04/08 05:40:17;;;;;;;5.63;2.83;;;6.80;99.90;;;;;;5078434;28;20189;-69
2022/04/08 05:42:45;;;;;;;6.00;3.17;;;6.90;99.90;;;;;;5077443;28;20188;-70
2022/04/08 05:45:11;;;;;;;5.03;2.90;;;7.00;99.90;;;;;;5078237;28;20197;-69
2022/04/08 05:47:38;;;;;;;3.93;3.10;;;7.00;99.90;;;;;;5059075;28;20184;-69
2022/04/08 05:50:04;;;;;;;6.10;3.17;;;7.10;99.90;;;;;;5081931;28;20212;-69
2022/04/08 05:52:30;;;;;;;4.30;2.93;;;7.10;99.90;;;;;;5096204;28;20275;-69
2022/04/08 05:54:56;;;;;;;7.03;3.13;;;7.20;99.90;;;;;;5076374;28;20740;-69
2022/04/08 05:57:23;;;;;;;6.37;3.07;;;7.30;99.90;;;;;;5094554;28;20634;-70
2022/04/08 05:59:49;;;;;;;4.07;3.00;;;7.30;99.90;;;;;;5058634;28;20231;-69
2022/04/08 06:02:15;;;;;;;3.50;3.03;;;7.50;99.90;;;;;;5094918;28;20181;-69
2022/04/08 06:04:41;;;;;;;4.80;3.33;;;7.50;99.90;;;;;;5077647;28;20204;-69
2022/04/08 06:07:07;;;;;;;4.63;2.53;;;7.40;99.90;;;;;;5061256;28;20215;-69
2022/04/08 06:09:34;;;;;;;6.90;3.17;;;7.40;99.90;;;;;;5095981;28;20237;-69
2022/04/08 06:11:59;;;;;;;4.50;2.80;;;7.60;99.90;;;;;;5095502;28;20267;-69
2022/04/08 06:14:26;;;;;;;3.27;2.30;;;7.60;99.90;;;;;;5077544;28;20355;-69
2022/04/08 06:16:55;;;;;;;5.83;2.97;;;7.70;99.90;;;;;;5095381;28;20652;-70
2022/04/08 06:19:23;;;;;;;3.27;2.60;;;7.80;99.90;;;;;;5060226;28;20192;-69
2022/04/08 06:21:49;;;;;;;5.10;3.30;;;7.80;99.90;;;;;;5094449;28;20219;-69
2022/04/08 06:24:14;;;;;;;3.83;2.50;;;7.80;99.90;;;;;;5077170;28;20236;-69
2022/04/08 06:26:40;;;;;;;7.73;2.97;;;7.80;99.90;;;;;;5077044;28;20612;-70
2022/04/08 06:29:06;;;;;;;4.93;3.37;;;7.80;99.90;;;;;;5095432;28;20188;-69
2022/04/08 06:31:34;;;;;;;3.10;2.80;;;7.90;99.90;;;;;;5060656;28;20645;-68
2022/04/08 06:34:01;;;;;;;8.07;3.77;;;8.00;99.90;;;;;;5076683;28;20551;-69
2022/04/08 06:36:28;;;;;;;8.33;3.00;;;8.00;99.90;;;;;;5060175;28;20184;-69
2022/04/08 06:38:53;;;;;;;7.63;3.13;;;8.00;99.90;;;;;;5093542;28;20181;-69
2022/04/08 06:41:19;;;;;;;8.27;3.17;;;8.10;99.90;;;;;;5094869;28;20264;-69
2022/04/08 06:43:45;;;;;;;2.80;2.50;;;8.10;99.90;;;;;;5094732;28;20339;-69
2022/04/08 06:46:11;;;;;;;5.83;3.23;;;8.10;99.90;;;;;;5094786;28;20189;-69
2022/04/08 06:48:40;;;;;;;5.17;2.63;;;8.00;99.90;;;;;;5059941;28;20192;-69
2022/04/08 06:51:05;;;;;;;8.37;2.87;;;8.00;99.90;;;;;;5076873;28;20593;-69
2022/04/08 06:53:32;;;;;;;6.90;2.53;;;8.00;99.90;;;;;;5060011;28;20325;-69
2022/04/08 06:55:59;;;;;;;4.40;2.60;;;8.00;99.90;;;;;;5065330;28;20276;-69
2022/04/08 06:58:27;;;;;;;5.90;2.83;;;8.00;99.90;;;;;;5076207;28;20288;-69
2022/04/08 07:00:53;;;;;;;8.30;3.27;;;8.20;99.90;;;;;;5076274;28;20192;-69
2022/04/08 07:03:19;;;;;;;4.97;2.80;;;8.20;99.90;;;;;;5060281;28;20245;-69
2022/04/08 07:05:45;;;;;;;4.80;2.73;;;8.30;99.90;;;;;;5093933;28;20658;-69
2022/04/08 07:08:11;;;;;;;3.93;3.10;;;8.20;99.90;;;;;;5042826;28;20185;-69
2022/04/08 07:10:39;;;;;;;4.10;2.47;;;8.10;99.90;;;;;;5076907;28;20204;-69
2022/04/08 07:13:06;;;;;;;5.77;3.27;;;8.30;99.90;;;;;;5076727;28;20249;-69
2022/04/08 07:15:32;;;;;;;4.53;2.63;;;8.40;99.90;;;;;;5094043;28;20188;-68
2022/04/08 07:18:03;;;;;;;7.83;2.63;;;8.30;99.90;;;;;;5093643;28;20195;-69
2022/04/08 07:20:29;;;;;;;6.23;2.40;;;8.20;99.90;;;;;;5093543;28;20189;-69
2022/04/08 07:22:54;;;;;;;3.57;1.80;;;8.30;99.90;;;;;;5076922;28;20184;-69
2022/04/08 07:25:20;;;;;;;10.27;3.67;;;8.20;99.90;;;;;;5041756;28;20189;-68
2022/04/08 07:27:52;;;;;;;9.03;3.17;;;8.30;99.90;;;;;;5044634;28;20192;-68
2022/04/08 07:30:20;;;;;;;2.03;1.90;;;8.30;99.90;;;;;;5093401;28;20188;-68
2022/04/08 07:32:48;;;;;;;5.30;2.63;;;8.40;99.90;;;;;;5070988;28;20210;-70
2022/04/08 07:35:14;;;;;;;4.60;2.17;;;8.60;99.90;;;;;;5086760;28;20722;-68
2022/04/08 07:37:40;;;;;;;4.50;2.30;;;8.70;99.90;;;;;;5076061;28;20268;-69
2022/04/08 07:40:07;;;;;;;8.07;2.83;;;8.70;99.90;;;;;;5092725;28;20280;-69
2022/04/08 07:42:33;;;;;;;5.47;3.00;;;8.70;99.90;;;;;;5093832;28;20185;-69
2022/04/08 07:44:59;;;;;;;2.00;1.67;;;8.80;99.90;;;;;;5093594;28;20291;-68
2022/04/08 07:47:28;;;;;;;2.13;1.97;;;8.90;99.90;;;;;;5075534;28;20276;-68
2022/04/08 07:49:58;;;;;;;2.97;1.63;;;9.00;99.90;;;;;;5092566;28;20181;-68
2022/04/08 07:52:25;;;;;;;1.63;1.53;;;9.00;99.90;;;;;;5075778;28;20524;-70
2022/04/08 07:54:51;;;;;;;5.57;1.87;;;8.90;99.90;;;;;;5093717;28;20685;-69
2022/04/08 07:57:17;;;;;;;1.83;1.73;;;9.10;99.90;;;;;;5062891;28;20637;-67
2022/04/08 07:59:43;;;;;;;6.70;2.20;;;9.10;99.90;;;;;;5092944;28;20200;-67
2022/04/08 08:02:10;;;;;;;11.73;2.93;;;9.10;99.90;;;;;;5093591;28;20648;-67
2022/04/08 08:04:36;;;;;;;3.03;2.63;;;9.30;99.90;;;;;;5093323;28;20220;-67
2022/04/08 08:07:02;;;;;;;3.87;2.10;;;9.30;99.90;;;;;;5092339;28;20193;-67
2022/04/08 08:09:28;;;;;;;5.67;2.00;;;9.30;99.90;;;;;;5072675;28;20196;-67
2022/04/08 08:11:54;;;;;;;4.33;2.17;;;9.30;99.90;;;;;;5078977;28;20556;-68
2022/04/08 08:14:19;;;;;;;5.87;1.80;;;9.40;99.90;;;;;;5093137;28;20188;-67
2022/04/08 08:16:45;;;;;;;4.37;2.27;;;9.40;99.90;;;;;;5073772;28;20601;-68
2022/04/08 08:19:11;;;;;;;3.30;1.70;;;9.60;99.90;;;;;;5057813;28;20205;-68
2022/04/08 08:21:37;;;;;;;2.10;1.90;;;9.80;99.90;;;;;;5092678;28;20271;-68
2022/04/08 08:24:03;;;;;;;2.00;1.77;;;9.90;99.90;;;;;;5092726;28;20287;-69
2022/04/08 08:26:30;;;;;;;3.87;1.83;;;10.10;99.90;;;;;;5062122;28;20220;-69
2022/04/08 08:28:56;;;;;;;6.53;2.60;;;10.10;99.90;;;;;;5090883;28;20589;-69
2022/04/08 08:31:22;;;;;;;3.77;1.63;;;10.30;99.90;;;;;;5092030;28;20254;-69
2022/04/08 08:33:49;;;;;;;5.10;2.50;;;10.40;99.90;;;;;;5056835;28;20200;-69
2022/04/08 08:36:14;;;;;;;6.10;3.30;;;10.40;99.90;;;;;;5087365;28;20185;-69
2022/04/08 08:38:40;;;;;;;4.53;2.73;;;10.40;99.90;;;;;;5092789;28;20189;-69
2022/04/08 08:41:08;;;;;;;4.82;2.22;;;10.50;99.90;;;;;;5091755;28;20602;-69
2022/04/08 08:43:35;;;;;;;5.47;2.50;;;10.60;99.90;;;;;;5092263;28;20732;-69
2022/04/08 08:46:03;;;;;;;6.50;2.33;;;10.60;99.90;;;;;;5091085;28;20275;-69
2022/04/08 08:48:33;;;;;;;2.17;1.97;;;10.70;99.90;;;;;;5072922;28;20590;-69
2022/04/08 08:51:02;;;;;;;4.50;2.38;;;10.80;99.90;;;;;;5068155;28;20178;-70
2022/04/08 08:53:30;;;;;;;3.47;1.80;;;10.80;99.90;;;;;;5054955;28;20181;-69
2022/04/08 08:55:56;;;;;;;5.40;1.80;;;10.90;99.90;;;;;;5092067;28;20605;-69
2022/04/08 08:58:23;;;;;;;2.23;1.67;;;10.90;99.90;;;;;;5091795;28;20336;-69
2022/04/08 09:00:49;;;;;;;3.77;1.67;;;10.80;99.90;;;;;;5092910;28;20212;-70
2022/04/08 09:03:15;;;;;;;4.37;2.27;;;10.70;99.90;;;;;;5092274;28;20266;-70
2022/04/08 09:05:42;;;;;;;7.13;2.10;;;10.60;99.90;;;;;;5074435;28;20543;-69
2022/04/08 09:08:09;;;;;;;2.67;2.10;;;10.60;99.90;;;;;;5074461;28;20180;-69
2022/04/08 09:10:52;;;;;;;5.23;2.43;;;10.50;99.90;;;;;;5074573;28;20200;-69
2022/04/08 09:13:22;;;;;;;3.40;2.53;;;10.50;99.90;;;;;;5074259;28;20686;-68
2022/04/08 09:15:55;;;;;;;5.80;2.42;;;10.80;99.90;;;;;;5092166;28;20264;-69
2022/04/08 09:18:21;;;;;;;4.10;2.27;;;10.70;99.90;;;;;;5074102;28;20621;-69
2022/04/08 09:20:49;;;;;;;8.52;2.97;;;10.60;99.90;;;;;;5092344;28;20180;-70
2022/04/08 09:23:18;;;;;;;5.28;2.08;;;10.50;99.90;;;;;;5073857;28;20251;-69
2022/04/08 09:25:44;;;;;;;6.88;2.83;;;10.50;99.90;;;;;;5074344;28;20252;-69
2022/04/08 09:28:17;;;;;;;2.70;1.98;;;10.40;99.90;;;;;;5092073;28;20217;-69
2022/04/08 09:30:53;;;;;;;4.70;2.03;;;10.30;99.90;;;;;;5092282;28;20218;-68
2022/04/08 09:33:21;;;;;;;3.75;2.25;;;10.40;99.90;;;;;;5092280;28;20196;-69
2022/04/08 09:35:47;;;;;;;11.33;2.80;;;10.30;99.90;;;;;;5074400;28;20188;-69
2022/04/08 09:38:19;;;;;;;3.73;2.57;;;10.40;99.90;;;;;;5073925;28;20199;-69
2022/04/08 09:40:45;;;;;;;3.50;2.60;;;10.40;99.90;;;;;;5073873;28;20192;-69
2022/04/08 09:43:12;;;;;;;2.95;2.10;;;10.40;99.90;;;;;;5091631;28;20577;-69
2022/04/08 09:45:41;;;;;;;3.78;2.10;;;10.60;99.90;;;;;;5070120;28;20182;-69
2022/04/08 09:48:08;;;;;;;4.30;2.23;;;10.60;99.90;;;;;;5058632;28;20603;-69
2022/04/08 09:50:36;;;;;;;4.07;2.47;;;10.70;99.90;;;;;;5091894;28;20184;-69
2022/04/08 09:53:04;;;;;;;6.32;1.95;;;10.70;99.90;;;;;;5091771;28;20647;-69
2022/04/08 09:55:30;;;;;;;2.25;1.75;;;10.60;99.90;;;;;;5074290;28;20529;-69
2022/04/08 09:57:59;;;;;;;2.50;2.30;;;10.60;99.90;;;;;;5076629;28;20197;-69
2022/04/08 10:00:27;;;;;;;12.23;3.50;;;10.80;99.90;;;;;;5076776;28;20184;-70
2022/04/08 10:02:54;;;;;;;4.27;2.50;;;11.20;99.90;;;;;;5095253;28;20185;-72
2022/04/08 10:05:22;;;;;;;3.67;2.53;;;11.20;99.90;;;;;;5061297;28;20601;-69
2022/04/08 10:07:52;;;;;;;5.67;2.67;;;11.10;99.90;;;;;;5095755;28;20187;-69
2022/04/08 10:10:51;;;;;;;2.17;2.03;;;10.80;99.90;;;;;;5076825;28;20184;-69
2022/04/08 10:13:43;;;;;;;9.20;2.80;;;10.50;99.90;;;;;;5095364;28;20257;-69
2022/04/08 10:16:18;;;;;;;4.63;2.33;;;10.50;99.90;;;;;;5094938;28;20600;-68
2022/04/08 10:18:46;;;;;;;7.77;2.50;;;10.70;99.90;;;;;;5094362;28;20653;-69
2022/04/08 10:21:12;;;;;;;4.20;2.93;;;10.80;99.90;;;;;;5060721;28;20191;-69
2022/04/08 10:23:52;;;;;;;5.63;3.17;;;10.80;99.90;;;;;;5076795;28;20299;-69
2022/04/08 10:26:23;;;;;;;4.07;2.57;;;10.70;99.90;;;;;;5091002;28;20182;-69
2022/04/08 10:28:50;;;;;;;5.60;3.20;;;10.60;99.90;;;;;;5088727;28;20201;-69
2022/04/08 10:31:17;;;;;;;5.75;2.50;;;10.70;99.90;;;;;;5076761;28;20199;-69
2022/04/08 10:34:05;;;;;;;5.95;2.75;;;10.90;99.90;;;;;;5094483;28;20710;-69
2022/04/08 10:36:32;;;;;;;3.22;2.90;;;10.80;99.90;;;;;;5059234;28;20184;-68
2022/04/08 10:39:12;;;;;;;7.78;3.08;;;10.90;99.90;;;;;;5076283;28;20185;-69
2022/04/08 10:42:06;;;;;;;6.10;2.45;;;10.90;99.90;;;;;;5064414;28;20188;-69
2022/04/08 10:44:37;;;;;;;4.88;2.90;;;11.00;99.90;;;;;;5092032;28;20588;-69
2022/04/08 10:47:10;;;;;;;2.63;2.40;;;11.00;99.90;;;;;;5085936;28;20930;-70
2022/04/08 10:49:50;;;;;;;5.97;2.63;;;11.20;99.90;;;;;;5094934;28;20181;-69
2022/04/08 10:52:25;;;;;;;5.25;2.53;;;11.30;99.90;;;;;;5095087;28;20187;-70
2022/04/08 10:55:02;;;;;;;5.32;2.25;;;11.40;99.90;;;;;;5094782;28;20629;-69
2022/04/08 10:57:39;;;;;;;3.15;2.17;;;11.40;99.90;;;;;;5094668;28;20694;-72
2022/04/08 11:00:08;;;;;;;3.35;2.13;;;11.30;99.90;;;;;;5075804;28;20199;-70
2022/04/08 11:02:35;;;;;;;3.28;2.40;;;11.30;99.90;;;;;;5076051;28;20184;-70
2022/04/08 11:05:06;;;;;;;13.23;3.58;;;11.40;99.90;;;;;;5094150;28;20668;-70
2022/04/08 11:07:32;;;;;;;3.85;2.25;;;11.60;99.90;;;;;;5077021;28;20193;-69
2022/04/08 11:09:58;;;;;;;4.97;2.55;;;11.60;99.90;;;;;;5090229;28;20185;-70
2022/04/08 11:12:25;;;;;;;10.50;3.03;;;11.70;99.90;;;;;;5094404;28;20211;-69
2022/04/08 11:14:59;;;;;;;6.72;2.45;;;11.90;99.90;;;;;;5059413;28;20197;-69
2022/04/08 11:17:37;;;;;;;4.38;2.08;;;11.80;99.90;;;;;;5075932;28;20603;-69
2022/04/08 11:20:07;;;;;;;3.13;2.30;;;11.80;99.90;;;;;;5067117;28;20184;-70
2022/04/08 11:22:43;;;;;;;5.10;2.45;;;11.80;99.90;;;;;;5094503;28;20672;-70
2022/04/08 11:25:17;;;;;;;5.10;2.45;;;11.90;99.90;;;;;;5055379;28;20208;-69
2022/04/08 11:27:43;;;;;;;6.97;1.80;;;12.10;99.90;;;;;;5084245;28;20242;-70
2022/04/08 11:30:09;;;;;;;7.35;2.45;;;12.00;99.90;;;;;;5075878;28;20189;-69
2022/04/08 11:32:39;;;;;;;5.47;2.13;;;12.00;99.90;;;;;;5094107;28;20181;-69
2022/04/08 11:35:14;;;;;;;3.40;2.10;;;11.90;99.90;;;;;;5056497;28;20196;-71
2022/04/08 11:37:40;;;;;;;7.55;1.85;;;12.00;99.90;;;;;;5074336;28;20173;-69
2022/04/08 11:40:08;;;;;;;3.00;2.30;;;11.90;99.90;;;;;;5072759;28;20234;-69
2022/04/08 11:42:34;;;;;;;3.28;1.85;;;11.50;99.90;;;;;;5074824;28;20180;-69
2022/04/08 11:45:01;;;;;;;1.75;1.65;;;11.60;99.90;;;;;;5075135;28;20212;-69
2022/04/08 11:47:31;;;;;;;1.80;1.70;;;11.80;99.90;;;;;;5074406;28;20600;-69
2022/04/08 11:50:06;;;;;;;9.80;2.65;;;12.10;99.90;;;;;;5093560;28;20184;-69
2022/04/08 11:52:32;;;;;;;3.35;2.03;;;12.00;99.90;;;;;;5093258;28;20198;-69
2022/04/08 11:55:06;;;;;;;2.63;1.48;;;11.70;99.90;;;;;;5093932;28;20271;-69
2022/04/08 11:57:33;;;;;;;2.53;1.70;;;11.40;99.90;;;;;;5074363;28;20199;-69
2022/04/08 12:00:01;;;;;;;1.83;1.50;;;11.40;99.90;;;;;;5075076;28;20541;-69
2022/04/08 12:02:29;;;;;;;3.60;1.40;;;11.40;99.90;;;;;;5085433;28;20185;-69
2022/04/08 12:04:56;;;;;;;3.33;2.40;;;11.40;99.90;;;;;;5080421;28;20262;-70
2022/04/08 12:07:24;;;;;;;1.50;1.30;;;11.10;99.90;;;;;;5075023;28;20184;-69
2022/04/08 12:09:52;;;;;;;2.83;1.70;;;11.10;99.90;;;;;;5074648;28;20207;-69
2022/04/08 12:12:25;;;;;;;4.63;1.85;;;11.50;99.90;;;;;;5092755;28;20637;-69
2022/04/08 12:14:52;;;;;;;3.63;1.85;;;11.70;99.90;;;;;;5091795;28;20253;-69
2022/04/08 12:17:17;;;;;;;4.20;1.30;;;11.90;99.90;;;;;;5093207;28;20228;-68
2022/04/08 12:19:43;;;;;;;4.47;1.90;;;11.90;99.90;;;;;;5074354;28;20191;-69
2022/04/08 12:22:12;;;;;;;1.95;1.80;;;11.60;99.90;;;;;;5056057;28;20287;-69
2022/04/08 12:24:42;;;;;;;2.05;1.80;;;11.60;99.90;;;;;;5073549;28;20572;-69
2022/04/08 12:27:25;;;;;;;5.47;2.15;;;11.30;99.90;;;;;;5062960;28;20176;-69
2022/04/08 12:30:08;;;;;;;2.33;2.13;;;11.50;99.90;;;;;;5075183;28;20194;-68
2022/04/08 12:32:44;;;;;;;5.22;2.03;;;11.70;99.90;;;;;;5091903;28;20645;-68
2022/04/08 12:35:14;;;;;;;4.25;2.58;;;11.60;99.90;;;;;;5074723;28;20245;-68
2022/04/08 12:37:41;;;;;;;2.42;2.20;;;11.60;99.90;;;;;;5092452;28;20690;-68
2022/04/08 12:40:07;;;;;;;4.53;2.33;;;11.80;99.90;;;;;;5091842;28;20180;-68
2022/04/08 12:42:34;;;;;;;3.33;1.83;;;12.10;99.90;;;;;;5093557;28;20283;-68
2022/04/08 12:45:00;;;;;;;3.42;2.15;;;12.20;99.90;;;;;;5073588;28;20224;-68
2022/04/08 12:47:26;;;;;;;2.33;2.10;;;11.90;99.90;;;;;;5091948;28;20203;-69
2022/04/08 12:49:52;;;;;;;6.13;2.55;;;12.10;99.90;;;;;;5091754;28;20181;-68
2022/04/08 12:52:18;;;;;;;3.47;2.63;;;12.00;99.90;;;;;;5092872;28;20217;-68
2022/04/08 12:54:43;;;;;;;5.55;2.33;;;12.00;99.90;;;;;;5062624;28;20193;-68